Terminal Aerodrome Forecast
Issued by NWS St Louis, MO

Home | Current Version | Previous Version | Text Only | Print | Product List | Glossary On
Versions: 1 2 3 4 5 6 7 8 9 10 11 12 13 14 15 16 17 18 19 20 21
363
FTUS43 KLSX 282342
TAFCOU
TAF
KCOU 282342Z 2900/2924 VRB04KT P6SM OVC006
     FM290400 04009KT 6SM BR OVC005
     FM290800 05013G19KT 4SM SHRA BR VCTS OVC004CB
     FM291600 10013G19KT 4SM SHRA BR VCTS OVC009CB=

USA.gov is the U.S. government's official web portal to all federal, state and local government web resources and services.